createdAt,value
2022-10-05T00:00:19.375Z,101040.31
2022-10-05T00:02:47.687Z,101041.16
2022-10-05T00:05:21.304Z,101035.75
2022-10-05T00:07:49.223Z,101036.78
2022-10-05T00:10:19.769Z,101034.09
2022-10-05T00:12:47.885Z,101031.38
2022-10-05T00:15:16.789Z,101035.13
2022-10-05T00:17:44.765Z,101036.78
2022-10-05T00:20:21.682Z,101029.72
2022-10-05T00:22:49.700Z,101042.38
2022-10-05T00:25:19.834Z,101038.84
2022-10-05T00:27:49.939Z,101038.03
2022-10-05T00:30:19.018Z,101037.19
2022-10-05T00:32:47.010Z,101035.72
2022-10-05T00:35:15.627Z,101043.59
2022-10-05T00:37:43.986Z,101045.47
2022-10-05T00:40:16.986Z,101049.41
2022-10-05T00:42:49.729Z,101041.31
2022-10-05T00:45:19.299Z,101047.75
2022-10-05T00:47:51.832Z,101042.34
2022-10-05T00:50:40.641Z,101045.06
2022-10-05T00:53:12.884Z,101042.53
2022-10-05T00:55:46.753Z,101060.59
2022-10-05T00:58:22.323Z,101059.78
2022-10-05T01:00:52.835Z,101055.41
2022-10-05T01:03:22.802Z,101056.25
2022-10-05T01:05:57.790Z,101066.19
2022-10-05T01:08:30.930Z,101068.91
2022-10-05T01:11:04.248Z,101061.66
2022-10-05T01:13:36.236Z,101070.78
2022-10-05T01:16:06.820Z,101067.06
2022-10-05T01:18:39.091Z,101081.56
2022-10-05T01:21:09.499Z,101076.16
2022-10-05T01:23:59.444Z,101074.47
2022-10-05T01:26:47.145Z,101074.47
2022-10-05T01:29:18.289Z,101077.19
2022-10-05T01:31:48.668Z,101084.44
2022-10-05T01:34:20.744Z,101078.22
2022-10-05T01:36:52.435Z,101090.03
2022-10-05T01:39:24.128Z,101086.50
2022-10-05T01:41:55.068Z,101096.47
2022-10-05T01:44:26.349Z,101095.66
2022-10-05T01:46:57.816Z,101094.78
2022-10-05T01:49:34.853Z,101097.72
2022-10-05T01:52:09.470Z,101102.28
2022-10-05T01:54:40.024Z,101095.19
2022-10-05T01:57:11.783Z,101110.56
2022-10-05T01:59:48.796Z,101108.03
2022-10-05T02:02:18.382Z,101108.91
2022-10-05T02:05:03.483Z,101112.63
2022-10-05T02:07:33.775Z,101116.34
2022-10-05T02:10:03.515Z,101120.94
2022-10-05T02:12:32.774Z,101126.31
2022-10-05T02:15:04.445Z,101119.25
2022-10-05T02:17:34.064Z,101124.25
2022-10-05T02:20:04.188Z,101113.66
2022-10-05T02:22:34.906Z,101119.06
2022-10-05T02:25:04.796Z,101126.31
2022-10-05T02:27:34.496Z,101126.31
2022-10-05T02:30:06.739Z,101119.25
2022-10-05T02:32:40.429Z,101131.72
2022-10-05T02:35:14.254Z,101123.63
2022-10-05T02:37:45.798Z,101125.47
2022-10-05T02:40:20.202Z,101123.81
2022-10-05T02:42:52.251Z,101128.38
2022-10-05T02:45:25.062Z,101124.00
2022-10-05T02:47:55.866Z,101129.38
2022-10-05T02:50:27.214Z,101128.56
2022-10-05T02:53:00.430Z,101129.59
2022-10-05T02:55:31.056Z,101131.47
2022-10-05T02:58:01.220Z,101126.25
2022-10-05T03:00:32.567Z,101133.34
2022-10-05T03:03:02.673Z,101125.44
2022-10-05T03:05:32.091Z,101129.16
2022-10-05T03:08:04.173Z,101123.78
2022-10-05T03:10:36.105Z,101120.03
2022-10-05T03:13:08.316Z,101121.06
2022-10-05T03:16:04.102Z,101104.22
2022-10-05T03:18:39.555Z,101107.13
2022-10-05T03:21:14.111Z,101104.22
2022-10-05T03:23:44.349Z,101102.75
2022-10-05T03:26:20.165Z,101101.94
2022-10-05T03:28:52.473Z,101099.22
2022-10-05T03:31:24.072Z,101098.38
2022-10-05T03:33:54.537Z,101102.09
2022-10-05T03:36:24.527Z,101112.09
2022-10-05T03:38:55.888Z,101116.44
2022-10-05T03:41:26.574Z,101117.47
2022-10-05T03:44:17.936Z,101118.31
2022-10-05T03:46:51.322Z,101117.47
2022-10-05T03:49:22.763Z,101117.66
2022-10-05T03:51:52.265Z,101116.81
2022-10-05T03:54:23.711Z,101121.41
2022-10-05T03:56:53.651Z,101123.28
2022-10-05T03:59:22.709Z,101124.28
2022-10-05T04:01:54.103Z,101123.28
2022-10-05T04:04:25.356Z,101129.69
2022-10-05T04:06:55.306Z,101134.25
2022-10-05T04:09:25.256Z,101136.13
2022-10-05T04:11:55.745Z,101143.16
2022-10-05T04:14:25.082Z,101137.78
2022-10-05T04:16:56.696Z,101144.03
2022-10-05T04:19:25.851Z,101145.69
2022-10-05T04:21:54.695Z,101146.72
2022-10-05T04:24:25.232Z,101149.44
2022-10-05T04:26:54.716Z,101154.81
2022-10-05T04:29:28.027Z,101152.97
2022-10-05T04:32:08.560Z,101152.97
2022-10-05T04:34:45.717Z,101149.44
2022-10-05T04:37:15.911Z,101152.13
2022-10-05T04:39:47.326Z,101160.22
2022-10-05T04:42:18.519Z,101156.66
2022-10-05T04:44:59.136Z,101160.22
2022-10-05T04:47:40.653Z,101164.75
2022-10-05T04:50:18.784Z,101172.03
2022-10-05T04:52:52.439Z,101168.50
2022-10-05T04:55:26.290Z,101170.38
2022-10-05T04:57:56.639Z,101173.06
2022-10-05T05:00:24.783Z,101175.94
2022-10-05T05:03:33.549Z,101180.50
2022-10-05T05:06:19.294Z,101174.28
2022-10-05T05:09:06.085Z,101179.03
2022-10-05T05:11:35.883Z,101187.13
2022-10-05T05:14:26.845Z,101183.41
2022-10-05T05:16:58.564Z,101189.81
2022-10-05T05:19:38.525Z,101184.63
2022-10-05T05:22:08.471Z,101189.19
2022-10-05T05:24:42.195Z,101195.41
2022-10-05T05:27:41.701Z,101198.97
2022-10-05T05:30:20.213Z,101200.63
2022-10-05T05:32:55.141Z,101203.31
2022-10-05T05:35:45.076Z,101211.25
2022-10-05T05:38:20.716Z,101210.38
2022-10-05T05:40:51.182Z,101214.56
2022-10-05T05:43:25.008Z,101211.69
2022-10-05T05:45:58.799Z,101217.91
2022-10-05T05:48:29.940Z,101217.06
2022-10-05T05:51:01.110Z,101213.34
2022-10-05T05:53:30.871Z,101225.00
2022-10-05T05:56:01.144Z,101216.25
2022-10-05T05:58:30.929Z,101224.13
2022-10-05T06:00:59.751Z,101215.03
2022-10-05T06:03:29.425Z,101221.25
2022-10-05T06:06:00.325Z,101225.63
2022-10-05T06:08:32.133Z,101224.78
2022-10-05T06:11:00.932Z,101229.16
2022-10-05T06:13:36.963Z,101239.94
2022-10-05T06:16:09.323Z,101240.59
2022-10-05T06:18:38.372Z,101238.72
2022-10-05T06:21:09.582Z,101249.16
2022-10-05T06:23:40.276Z,101250.66
2022-10-05T06:26:13.277Z,101252.94
2022-10-05T06:28:41.250Z,101259.84
2022-10-05T06:31:16.959Z,101253.41
2022-10-05T06:33:48.818Z,101256.75
2022-10-05T06:36:24.793Z,101259.69
2022-10-05T06:39:05.572Z,101257.66
2022-10-05T06:41:38.550Z,101257.25
2022-10-05T06:44:09.186Z,101266.88
2022-10-05T06:46:39.542Z,101266.47
2022-10-05T06:49:15.668Z,101267.13
2022-10-05T06:51:50.885Z,101258.63
2022-10-05T06:54:26.976Z,101267.38
2022-10-05T06:56:57.196Z,101265.69
2022-10-05T06:59:26.519Z,101269.03
2022-10-05T07:01:57.067Z,101261.78
2022-10-05T07:04:46.491Z,101259.06
2022-10-05T07:07:20.655Z,101274.88
2022-10-05T07:09:53.976Z,101275.72
2022-10-05T07:12:46.617Z,101269.94
2022-10-05T07:15:26.785Z,101272.44
2022-10-05T07:18:01.416Z,101266.84
2022-10-05T07:20:30.513Z,101271.22
2022-10-05T07:23:05.888Z,101272.91
2022-10-05T07:25:37.174Z,101279.97
2022-10-05T07:28:07.821Z,101279.97
2022-10-05T07:30:39.415Z,101276.22
2022-10-05T07:33:09.429Z,101282.28
2022-10-05T07:35:59.758Z,101284.78
2022-10-05T07:38:33.000Z,101297.09
2022-10-05T07:41:05.028Z,101288.75
2022-10-05T07:44:00.550Z,101293.16
2022-10-05T07:46:26.607Z,101293.78
2022-10-05T07:48:58.442Z,101297.13
2022-10-05T07:51:30.430Z,101300.66
2022-10-05T07:54:04.536Z,101303.81
2022-10-05T07:56:35.369Z,101298.19
2022-10-05T07:59:07.831Z,101300.72
2022-10-05T08:01:36.918Z,101305.56
2022-10-05T08:04:06.406Z,101311.56
2022-10-05T08:06:45.269Z,101310.56
2022-10-05T08:09:34.806Z,101308.50
2022-10-05T08:12:12.230Z,101304.56
2022-10-05T08:14:44.123Z,101309.75
2022-10-05T08:17:14.685Z,101303.97
2022-10-05T08:19:44.805Z,101313.53
2022-10-05T08:22:17.624Z,101313.38
2022-10-05T08:24:51.620Z,101308.59
2022-10-05T08:27:22.673Z,101320.03
2022-10-05T08:29:55.635Z,101314.63
2022-10-05T08:32:25.308Z,101323.38
2022-10-05T08:34:55.295Z,101324.06
2022-10-05T08:37:24.800Z,101326.38
2022-10-05T08:39:57.099Z,101335.13
2022-10-05T08:42:43.087Z,101337.41
2022-10-05T08:45:36.531Z,101335.38
2022-10-05T08:48:20.801Z,101341.22
2022-10-05T08:51:09.224Z,101344.56
2022-10-05T08:53:56.969Z,101343.06
2022-10-05T08:56:31.592Z,101345.34
2022-10-05T08:59:05.129Z,101352.75
2022-10-05T09:01:38.004Z,101349.59
2022-10-05T09:04:20.414Z,101355.66
2022-10-05T09:07:09.857Z,101352.75
2022-10-05T09:10:01.686Z,101349.66
2022-10-05T09:13:19.857Z,101354.88
2022-10-05T09:16:13.350Z,101348.25
2022-10-05T09:19:05.601Z,101343.47
2022-10-05T09:21:41.825Z,101340.78
2022-10-05T09:24:24.215Z,101328.72
2022-10-05T09:27:04.654Z,101332.25
2022-10-05T09:30:00.033Z,101334.56
2022-10-05T09:32:35.083Z,101330.81
2022-10-05T09:35:15.322Z,101332.69
2022-10-05T09:38:05.167Z,101334.56
2022-10-05T09:41:14.048Z,101343.75
2022-10-05T09:44:20.140Z,101337.75
2022-10-05T09:47:21.151Z,101344.81
2022-10-05T09:50:00.663Z,101330.94
2022-10-05T09:53:08.428Z,101339.03
2022-10-05T09:56:11.455Z,101337.59
2022-10-05T09:59:03.279Z,101343.44
2022-10-05T10:01:44.026Z,101335.09
2022-10-05T10:04:36.502Z,101335.09
2022-10-05T10:07:35.786Z,101337.34
2022-10-05T10:10:21.053Z,101339.41
2022-10-05T10:12:58.276Z,101326.13
2022-10-05T10:23:00.487Z,101327.94
2022-10-05T10:26:01.888Z,101317.94
2022-10-05T10:28:52.545Z,101320.88
2022-10-05T10:31:46.342Z,101323.59
2022-10-05T10:34:44.391Z,101322.13
2022-10-05T10:37:25.594Z,101324.41
2022-10-05T10:40:04.771Z,101331.88
2022-10-05T10:42:38.182Z,101324.78
2022-10-05T10:45:19.690Z,101310.63
2022-10-05T10:47:52.089Z,101312.03
2022-10-05T10:50:51.324Z,101307.03
2022-10-05T10:53:39.373Z,101313.28
2022-10-05T10:56:16.288Z,101307.69
2022-10-05T10:58:59.068Z,101312.91
2022-10-05T11:01:34.268Z,101310.38
2022-10-05T11:04:18.762Z,101306.63
2022-10-05T11:07:34.392Z,101303.09
2022-10-05T11:10:27.247Z,101301.22
2022-10-05T11:13:24.819Z,101296.88
2022-10-05T11:18:48.411Z,101293.09
2022-10-05T11:21:24.299Z,101294.75
2022-10-05T11:24:18.891Z,101299.97
2022-10-05T11:26:58.061Z,101295.81
2022-10-05T11:29:36.804Z,101290.81
2022-10-05T11:32:18.090Z,101288.75
2022-10-05T11:35:24.562Z,101291.47
2022-10-05T11:38:15.438Z,101285.66
2022-10-05T11:41:17.480Z,101277.94
2022-10-05T11:44:06.100Z,101278.97
2022-10-05T11:46:37.836Z,101280.00
2022-10-05T11:49:22.394Z,101275.63
2022-10-05T11:51:57.205Z,101275.63
2022-10-05T11:54:58.731Z,101280.59
2022-10-05T11:57:29.221Z,101282.69
2022-10-05T11:59:59.426Z,101284.88
2022-10-05T12:02:48.017Z,101289.56
2022-10-05T12:05:18.799Z,101271.25
2022-10-05T12:07:52.055Z,101267.53
2022-10-05T12:10:29.052Z,101262.75
2022-10-05T12:13:06.162Z,101257.13
2022-10-05T12:15:38.618Z,101251.31
2022-10-05T12:18:08.502Z,101251.78
2022-10-05T12:20:40.200Z,101243.66
2022-10-05T12:23:12.143Z,101235.56
2022-10-05T12:25:44.053Z,101238.25
2022-10-05T12:28:13.340Z,101238.88
2022-10-05T12:30:57.926Z,101233.47
2022-10-05T12:33:27.145Z,101227.03
2022-10-05T12:35:57.069Z,101230.38
2022-10-05T12:38:28.914Z,101227.69
2022-10-05T12:41:05.262Z,101227.69
2022-10-05T12:43:37.391Z,101231.00
2022-10-05T12:46:10.197Z,101228.28
2022-10-05T12:48:56.943Z,101224.16
2022-10-05T12:51:32.087Z,101219.41
2022-10-05T12:54:02.968Z,101223.34
2022-10-05T12:56:38.009Z,101225.66
2022-10-05T12:59:10.668Z,101226.28
2022-10-05T13:01:41.252Z,101215.91
2022-10-05T13:04:20.499Z,101224.44
2022-10-05T13:07:06.853Z,101223.22
2022-10-05T13:09:38.029Z,101221.16
2022-10-05T13:12:09.295Z,101223.22
2022-10-05T13:14:44.648Z,101210.31
2022-10-05T13:17:15.523Z,101212.03
2022-10-05T13:19:45.035Z,101213.66
2022-10-05T13:22:28.911Z,101208.91
2022-10-05T13:25:03.148Z,101210.38
2022-10-05T13:28:20.682Z,101212.84
2022-10-05T13:30:57.854Z,101208.69
2022-10-05T13:33:34.108Z,101208.91
2022-10-05T13:36:05.805Z,101206.19
2022-10-05T13:38:40.096Z,101205.38
2022-10-05T13:41:11.955Z,101205.38
2022-10-05T13:43:44.695Z,101198.06
2022-10-05T13:46:18.730Z,101198.91
2022-10-05T13:48:53.561Z,101200.78
2022-10-05T13:51:23.249Z,101203.50
2022-10-05T13:53:56.221Z,101198.06
2022-10-05T13:56:27.072Z,101190.97
2022-10-05T13:59:00.089Z,101196.19
2022-10-05T14:01:36.639Z,101193.69
2022-10-05T14:04:07.559Z,101190.97
2022-10-05T14:06:37.784Z,101189.31
2022-10-05T14:09:05.960Z,101180.38
2022-10-05T14:11:34.889Z,101177.44
2022-10-05T14:14:05.897Z,101188.28
2022-10-05T14:16:35.755Z,101193.31
2022-10-05T14:19:18.926Z,101184.75
2022-10-05T14:21:50.831Z,101181.66
2022-10-05T14:24:32.244Z,101183.94
2022-10-05T14:27:19.264Z,101190.84
2022-10-05T14:29:49.226Z,101187.09
2022-10-05T14:32:18.736Z,101186.91
2022-10-05T14:34:47.109Z,101182.72
2022-10-05T14:37:19.303Z,101183.16
2022-10-05T14:39:48.878Z,101180.88
2022-10-05T14:42:19.324Z,101180.44
2022-10-05T14:44:47.927Z,101177.31
2022-10-05T14:47:27.433Z,101171.91
2022-10-05T14:50:10.378Z,101178.59
2022-10-05T14:52:41.326Z,101170.03
2022-10-05T14:55:25.595Z,101181.09
2022-10-05T14:58:25.450Z,101175.03
2022-10-05T15:00:57.994Z,101174.63
2022-10-05T15:03:35.489Z,101172.53
2022-10-05T15:06:04.494Z,101170.88
2022-10-05T15:08:45.246Z,101176.72
2022-10-05T15:11:18.327Z,101175.44
2022-10-05T15:14:20.997Z,101173.81
2022-10-05T15:16:52.850Z,101173.34
2022-10-05T15:19:23.953Z,101176.28
2022-10-05T15:22:11.025Z,101180.00
2022-10-05T15:24:43.841Z,101181.25
2022-10-05T15:27:17.186Z,101184.19
2022-10-05T15:29:52.418Z,101170.66
2022-10-05T15:32:28.553Z,101172.72
2022-10-05T15:35:08.599Z,101174.59
2022-10-05T15:37:39.322Z,101162.28
2022-10-05T15:40:09.443Z,101167.69
2022-10-05T15:42:38.806Z,101164.34
2022-10-05T15:45:12.355Z,101171.84
2022-10-05T15:47:47.409Z,101176.66
2022-10-05T15:50:21.797Z,101179.53
2022-10-05T15:52:54.764Z,101176.19
2022-10-05T15:55:27.581Z,101175.59
2022-10-05T15:58:02.685Z,101174.75
2022-10-05T16:00:32.000Z,101159.97
2022-10-05T16:03:05.166Z,101158.28
2022-10-05T16:06:00.069Z,101154.75
2022-10-05T16:08:57.281Z,101162.44
2022-10-05T16:11:55.236Z,101160.97
2022-10-05T16:14:31.889Z,101168.28
2022-10-05T16:17:09.746Z,101172.22
2022-10-05T16:19:39.909Z,101177.41
2022-10-05T16:22:15.716Z,101174.09
2022-10-05T16:24:53.154Z,101177.81
2022-10-05T16:27:25.353Z,101181.56
2022-10-05T16:29:56.163Z,101174.47
2022-10-05T16:32:26.225Z,101172.00
2022-10-05T16:35:02.753Z,101176.56
2022-10-05T16:37:37.766Z,101183.22
2022-10-05T16:40:09.831Z,101188.00
2022-10-05T16:42:47.063Z,101200.25
2022-10-05T16:45:29.994Z,101202.94
2022-10-05T16:48:02.988Z,101206.03
2022-10-05T16:50:33.750Z,101198.31
2022-10-05T16:53:05.929Z,101200.41
2022-10-05T16:55:36.832Z,101196.00
2022-10-05T16:58:06.487Z,101198.94
2022-10-05T17:00:42.624Z,101183.13
2022-10-05T17:03:28.711Z,101179.78
2022-10-05T17:06:04.734Z,101179.13
2022-10-05T17:08:57.562Z,101173.09
2022-10-05T17:11:32.309Z,101177.66
2022-10-05T17:14:11.931Z,101179.72
2022-10-05T17:16:47.570Z,101178.06
2022-10-05T17:19:42.432Z,101184.50
2022-10-05T17:22:14.935Z,101188.22
2022-10-05T17:24:55.250Z,101191.97
2022-10-05T17:27:35.747Z,101193.84
2022-10-05T17:30:26.136Z,101196.72
2022-10-05T17:32:59.189Z,101203.19
2022-10-05T17:35:49.333Z,101205.03
2022-10-05T17:38:20.930Z,101201.72
2022-10-05T17:41:16.279Z,101200.00
2022-10-05T17:43:58.804Z,101208.75
2022-10-05T17:46:39.527Z,101210.81
2022-10-05T17:49:19.254Z,101215.56
2022-10-05T17:52:27.301Z,101209.53
2022-10-05T17:55:30.250Z,101209.53
2022-10-05T17:58:01.988Z,101195.34
2022-10-05T18:00:46.113Z,101204.13
2022-10-05T18:03:37.617Z,101209.13
2022-10-05T18:06:34.051Z,101211.63
2022-10-05T18:09:30.886Z,101206.03
2022-10-05T18:12:26.813Z,101209.56
2022-10-05T18:15:01.294Z,101208.75
2022-10-05T18:17:42.952Z,101212.06
2022-10-05T18:20:21.046Z,101210.19
2022-10-05T18:22:53.546Z,101208.34
2022-10-05T18:25:27.179Z,101215.41
2022-10-05T18:28:16.754Z,101221.47
2022-10-05T18:30:59.213Z,101216.22
2022-10-05T18:33:52.991Z,101216.22
2022-10-05T18:36:37.916Z,101210.00
2022-10-05T18:39:13.302Z,101206.47
2022-10-05T18:41:48.299Z,101205.41
2022-10-05T18:48:16.201Z,101204.59
2022-10-05T18:50:46.502Z,101201.88
2022-10-05T18:53:24.522Z,101205.41
2022-10-05T18:55:55.195Z,101204.59
2022-10-05T18:58:27.142Z,101214.34
2022-10-05T19:01:20.827Z,101216.22
2022-10-05T19:04:00.243Z,101223.50
2022-10-05T19:06:29.790Z,101221.63
2022-10-05T19:09:04.093Z,101224.56
2022-10-05T19:11:34.527Z,101225.38
2022-10-05T19:14:07.994Z,101225.56
2022-10-05T19:17:00.537Z,101221.22
2022-10-05T19:19:51.073Z,101217.03
2022-10-05T19:22:25.797Z,101223.28
2022-10-05T19:25:01.920Z,101230.56
2022-10-05T19:27:38.023Z,101230.75
2022-10-05T19:30:18.795Z,101230.56
2022-10-05T19:33:27.860Z,101230.75
2022-10-05T19:36:02.862Z,101230.75
2022-10-05T19:38:34.544Z,101227.03
2022-10-05T19:41:06.888Z,101228.03
2022-10-05T19:46:52.554Z,101236.16
2022-10-05T19:49:40.118Z,101250.69
2022-10-05T19:52:24.413Z,101249.66
2022-10-05T19:55:14.275Z,101249.88
2022-10-05T19:57:48.933Z,101254.44
2022-10-05T20:00:24.680Z,101247.16
2022-10-05T20:02:53.176Z,101249.88
2022-10-05T20:05:24.109Z,101250.69
2022-10-05T20:07:53.532Z,101257.16
2022-10-05T20:10:35.397Z,101257.34
2022-10-05T20:13:03.994Z,101259.22
2022-10-05T20:15:50.814Z,101263.56
2022-10-05T20:18:59.514Z,101263.56
2022-10-05T20:21:44.779Z,101256.50
2022-10-05T20:24:16.222Z,101257.53
2022-10-05T20:27:05.924Z,101260.22
2022-10-05T20:29:36.305Z,101251.50
2022-10-05T20:32:08.951Z,101254.19
2022-10-05T20:34:42.746Z,101246.09
2022-10-05T20:37:11.497Z,101247.09
2022-10-05T20:39:41.754Z,101251.50
2022-10-05T20:42:10.502Z,101246.09
2022-10-05T20:44:39.234Z,101245.22
2022-10-05T20:47:08.879Z,101244.41
2022-10-05T20:49:37.983Z,101240.88
2022-10-05T20:52:06.973Z,101240.03
2022-10-05T20:54:35.854Z,101231.94
2022-10-05T20:57:06.684Z,101231.94
2022-10-05T20:59:35.497Z,101228.41
2022-10-05T21:02:03.906Z,101225.72
2022-10-05T21:04:41.220Z,101221.13
2022-10-05T21:07:10.178Z,101219.44
2022-10-05T21:09:40.068Z,101212.38
2022-10-05T21:12:09.582Z,101214.91
2022-10-05T21:14:45.186Z,101208.63
2022-10-05T21:17:13.450Z,101210.50
2022-10-05T21:19:42.181Z,101204.50
2022-10-05T21:22:10.760Z,101210.72
2022-10-05T21:24:41.079Z,101205.50
2022-10-05T21:27:11.482Z,101204.84
2022-10-05T21:29:41.218Z,101210.47
2022-10-05T21:32:12.159Z,101207.56
2022-10-05T21:34:40.254Z,101203.38
2022-10-05T21:37:08.972Z,101199.03
2022-10-05T21:39:36.987Z,101200.69
2022-10-05T21:42:06.090Z,101203.59
2022-10-05T21:44:35.417Z,101201.09
2022-10-05T21:47:04.669Z,101199.41
2022-10-05T21:49:32.650Z,101199.41
2022-10-05T21:52:01.147Z,101194.03
2022-10-05T21:54:30.583Z,101191.50
2022-10-05T21:56:59.034Z,101187.97
2022-10-05T21:59:28.960Z,101198.97
2022-10-05T22:01:58.807Z,101197.31
2022-10-05T22:04:26.729Z,101195.66
2022-10-05T22:06:54.744Z,101191.25
2022-10-05T22:09:23.043Z,101190.63
2022-10-05T22:11:51.469Z,101186.91
2022-10-05T22:14:19.459Z,101189.78
2022-10-05T22:16:47.586Z,101188.13
2022-10-05T22:19:17.680Z,101187.47
2022-10-05T22:21:45.610Z,101183.94
2022-10-05T22:24:13.646Z,101181.44
2022-10-05T22:26:41.621Z,101179.59
2022-10-05T22:29:09.678Z,101173.53
2022-10-05T22:31:37.703Z,101171.66
2022-10-05T22:34:05.801Z,101175.59
2022-10-05T22:36:36.386Z,101179.13
2022-10-05T22:39:04.428Z,101181.00
2022-10-05T22:41:32.541Z,101178.47
2022-10-05T22:44:00.854Z,101178.47
2022-10-05T22:46:29.218Z,101171.41
2022-10-05T22:48:57.179Z,101170.78
2022-10-05T22:51:25.547Z,101164.38
2022-10-05T22:53:54.899Z,101160.63
2022-10-05T22:56:22.829Z,101159.97
2022-10-05T22:58:51.048Z,101165.19
2022-10-05T23:01:19.814Z,101158.97
2022-10-05T23:03:47.899Z,101154.56
2022-10-05T23:06:16.516Z,101154.38
2022-10-05T23:08:44.516Z,101149.16
2022-10-05T23:11:15.052Z,101145.63
2022-10-05T23:13:43.130Z,101149.38
2022-10-05T23:16:11.991Z,101152.28
2022-10-05T23:18:40.124Z,101152.28
2022-10-05T23:21:08.665Z,101152.28
2022-10-05T23:23:37.012Z,101146.03
2022-10-05T23:26:05.068Z,101140.63
2022-10-05T23:28:34.583Z,101136.47
2022-10-05T23:31:03.414Z,101140.81
2022-10-05T23:33:31.701Z,101137.09
2022-10-05T23:36:00.305Z,101138.13
2022-10-05T23:38:28.524Z,101142.69
2022-10-05T23:40:58.712Z,101136.47
2022-10-05T23:43:26.832Z,101142.25
2022-10-05T23:45:56.315Z,101135.19
2022-10-05T23:48:24.887Z,101126.25
2022-10-05T23:50:53.136Z,101129.16
2022-10-05T23:53:21.630Z,101123.91
2022-10-05T23:55:50.987Z,101124.78
2022-10-05T23:58:18.949Z,101123.91
